createdAt,value
2018-08-03T00:00:30.626Z,30.01
2018-08-03T00:01:11.468Z,29.98
2018-08-03T00:01:52.259Z,29.92
2018-08-03T00:02:33.052Z,29.95
2018-08-03T00:03:13.775Z,29.97
2018-08-03T00:03:54.545Z,30
2018-08-03T00:04:35.392Z,29.95
2018-08-03T00:05:16.165Z,29.95
2018-08-03T00:05:56.888Z,29.95
2018-08-03T00:06:37.662Z,29.97
2018-08-03T00:07:18.460Z,29.97
2018-08-03T00:07:59.286Z,29.94
2018-08-03T00:08:40.036Z,29.98
2018-08-03T00:09:20.778Z,29.98
2018-08-03T00:10:01.615Z,29.95
2018-08-03T00:10:42.462Z,29.94
2018-08-03T00:11:23.243Z,29.97
2018-08-03T00:12:03.994Z,29.92
2018-08-03T00:12:44.826Z,29.98
2018-08-03T00:13:25.655Z,29.97
2018-08-03T00:14:06.388Z,29.9
2018-08-03T00:14:47.139Z,29.94
2018-08-03T00:15:27.864Z,29.87
2018-08-03T00:16:08.667Z,29.94
2018-08-03T00:16:49.475Z,29.92
2018-08-03T00:17:30.308Z,29.92
2018-08-03T00:18:11.094Z,29.89
2018-08-03T00:18:51.831Z,29.89
2018-08-03T00:19:32.635Z,29.92
2018-08-03T00:20:13.438Z,29.95
2018-08-03T00:20:54.267Z,29.89
2018-08-03T00:21:34.999Z,29.82
2018-08-03T00:22:15.735Z,29.87
2018-08-03T00:22:56.583Z,29.9
2018-08-03T00:23:37.377Z,29.92
2018-08-03T00:24:18.191Z,29.87
2018-08-03T00:24:58.891Z,29.86
2018-08-03T00:25:39.744Z,29.92
2018-08-03T00:26:20.512Z,29.89
2018-08-03T00:27:01.288Z,29.87
2018-08-03T00:27:42.006Z,29.87
2018-08-03T00:28:22.771Z,29.9
2018-08-03T00:29:03.582Z,29.89
2018-08-03T00:29:44.402Z,29.94
2018-08-03T00:30:25.168Z,29.92
2018-08-03T00:31:05.993Z,29.95
2018-08-03T00:31:46.796Z,29.89
2018-08-03T00:32:27.614Z,29.89
2018-08-03T00:33:08.454Z,29.92
2018-08-03T00:33:49.218Z,29.87
2018-08-03T00:34:29.974Z,29.87
2018-08-03T00:35:10.706Z,29.92
2018-08-03T00:35:51.534Z,29.87
2018-08-03T00:36:32.370Z,29.94
2018-08-03T00:37:13.164Z,29.85
2018-08-03T00:37:53.869Z,29.83
2018-08-03T00:38:34.708Z,29.85
2018-08-03T00:39:15.522Z,29.87
2018-08-03T00:39:56.299Z,29.83
2018-08-03T00:40:36.997Z,29.89
2018-08-03T00:41:17.790Z,29.94
2018-08-03T00:41:58.550Z,29.94
2018-08-03T00:42:39.338Z,29.89
2018-08-03T00:43:20.037Z,29.92
2018-08-03T00:44:00.822Z,29.9
2018-08-03T00:44:41.625Z,29.92
2018-08-03T00:45:22.438Z,29.94
2018-08-03T00:46:03.277Z,29.9
2018-08-03T00:46:44.054Z,29.92
2018-08-03T00:47:24.854Z,29.87
2018-08-03T00:48:05.615Z,29.94
2018-08-03T00:48:46.323Z,29.83
2018-08-03T00:51:02.685Z,29.97
2018-08-03T00:51:43.497Z,29.86
2018-08-03T00:52:24.334Z,29.95
2018-08-03T00:55:49.094Z,29.95
2018-08-03T00:59:40.234Z,29.85
2018-08-03T01:00:20.967Z,29.87
2018-08-03T01:02:36.428Z,29.86
2018-08-03T01:12:45.333Z,29.85
2018-08-03T01:13:26.088Z,29.78
2018-08-03T01:14:06.841Z,29.89
2018-08-03T01:14:47.692Z,29.87
2018-08-03T01:15:28.417Z,29.86
2018-08-03T01:16:09.172Z,29.92
2018-08-03T01:16:49.916Z,29.9
2018-08-03T01:17:30.771Z,29.78
2018-08-03T01:18:11.569Z,29.87
2018-08-03T01:18:52.353Z,29.86
2018-08-03T01:19:33.119Z,29.78
2018-08-03T01:20:13.883Z,29.82
2018-08-03T01:20:54.599Z,29.83
2018-08-03T01:21:35.374Z,29.83
2018-08-03T01:22:16.246Z,29.87
2018-08-03T01:22:56.997Z,29.86
2018-08-03T01:23:37.715Z,29.8
2018-08-03T01:24:18.541Z,29.87
2018-08-03T01:24:59.452Z,29.89
2018-08-03T01:25:40.245Z,29.9
2018-08-03T01:26:20.977Z,29.83
2018-08-03T01:27:01.746Z,29.92
2018-08-03T01:27:42.581Z,29.89
2018-08-03T01:28:23.324Z,29.89
2018-08-03T01:29:04.089Z,29.89
2018-08-03T01:29:44.816Z,29.89
2018-08-03T01:30:25.594Z,29.9
2018-08-03T01:31:06.434Z,29.86
2018-08-03T01:31:47.162Z,29.89
2018-08-03T01:32:27.862Z,29.87
2018-08-03T01:33:08.737Z,29.86
2018-08-03T01:33:49.593Z,29.89
2018-08-03T01:34:30.363Z,29.92
2018-08-03T01:35:11.163Z,29.92
2018-08-03T01:35:51.900Z,29.9
2018-08-03T01:36:32.635Z,29.89
2018-08-03T01:37:13.447Z,29.89
2018-08-03T01:37:54.240Z,29.92
2018-08-03T01:38:35.070Z,29.92
2018-08-03T01:39:15.835Z,29.83
2018-08-03T01:39:56.557Z,29.92
2018-08-03T01:40:37.379Z,29.89
2018-08-03T01:41:18.163Z,29.9
2018-08-03T01:41:58.930Z,29.87
2018-08-03T01:42:39.671Z,29.87
2018-08-03T01:43:20.477Z,29.87
2018-08-03T01:44:01.319Z,29.94
2018-08-03T01:44:42.080Z,29.9
2018-08-03T01:45:22.800Z,29.9
2018-08-03T01:46:03.634Z,29.92
2018-08-03T01:46:44.437Z,29.87
2018-08-03T01:47:25.214Z,29.85
2018-08-03T01:48:05.935Z,29.86
2018-08-03T01:48:46.713Z,29.86
2018-08-03T01:49:27.495Z,29.83
2018-08-03T01:50:08.251Z,29.79
2018-08-03T01:50:49.033Z,29.83
2018-08-03T01:51:29.755Z,29.79
2018-08-03T01:52:10.589Z,29.82
2018-08-03T01:52:51.346Z,29.87
2018-08-03T01:53:32.174Z,29.73
2018-08-03T01:54:12.956Z,29.85
2018-08-03T01:54:53.664Z,29.76
2018-08-03T01:55:34.374Z,29.74
2018-08-03T01:56:15.119Z,29.7
2018-08-03T01:56:55.992Z,29.74
2018-08-03T01:57:36.797Z,29.79
2018-08-03T01:58:17.552Z,29.85
2018-08-03T01:58:58.411Z,29.83
2018-08-03T01:59:39.176Z,29.71
2018-08-03T02:00:20.005Z,29.79
2018-08-03T02:01:00.765Z,29.79
2018-08-03T02:01:41.494Z,29.7
2018-08-03T02:02:22.360Z,29.85
2018-08-03T02:03:03.116Z,29.83
2018-08-03T02:03:43.871Z,29.8
2018-08-03T02:04:24.618Z,29.83
2018-08-03T02:05:05.454Z,29.73
2018-08-03T02:05:46.232Z,29.68
2018-08-03T02:06:26.995Z,29.83
2018-08-03T02:07:07.774Z,29.73
2018-08-03T02:07:48.628Z,29.7
2018-08-03T02:08:29.490Z,29.73
2018-08-03T02:09:10.335Z,29.71
2018-08-03T02:09:51.085Z,29.78
2018-08-03T02:10:31.811Z,29.74
2018-08-03T02:11:12.566Z,29.79
2018-08-03T02:11:53.331Z,29.8
2018-08-03T02:12:34.139Z,29.8
2018-08-03T02:13:14.980Z,29.74
2018-08-03T02:13:55.759Z,29.7
2018-08-03T02:14:36.544Z,29.74
2018-08-03T02:15:17.321Z,29.74
2018-08-03T02:15:58.097Z,29.78
2018-08-03T02:16:38.823Z,29.71
2018-08-03T02:17:19.548Z,29.78
2018-08-03T02:18:00.307Z,29.68
2018-08-03T02:18:41.175Z,29.68
2018-08-03T02:19:22.025Z,29.68
2018-08-03T02:20:02.828Z,29.67
2018-08-03T02:20:43.582Z,29.61
2018-08-03T02:21:24.281Z,29.67
2018-08-03T02:22:05.009Z,29.64
2018-08-03T02:22:45.852Z,29.65
2018-08-03T02:23:26.612Z,29.7
2018-08-03T02:24:07.340Z,29.7
2018-08-03T02:24:48.170Z,29.78
2018-08-03T02:25:28.951Z,29.71
2018-08-03T02:26:09.820Z,29.67
2018-08-03T02:26:50.555Z,29.7
2018-08-03T02:27:31.324Z,29.65
2018-08-03T02:28:12.087Z,29.7
2018-08-03T02:28:52.831Z,29.61
2018-08-03T02:29:33.740Z,29.61
2018-08-03T02:30:14.533Z,29.7
2018-08-03T02:30:55.349Z,29.7
2018-08-03T02:31:36.119Z,29.68
2018-08-03T02:32:16.899Z,29.71
2018-08-03T02:32:57.683Z,29.65
2018-08-03T02:33:38.477Z,29.78
2018-08-03T02:34:19.221Z,29.7
2018-08-03T02:34:59.955Z,29.65
2018-08-03T02:35:40.759Z,29.55
2018-08-03T02:36:21.566Z,29.57
2018-08-03T02:37:02.323Z,29.51
2018-08-03T02:37:43.117Z,29.51
2018-08-03T02:38:23.913Z,29.58
2018-08-03T02:39:04.728Z,29.61
2018-08-03T02:39:45.524Z,29.52
2018-08-03T02:40:26.312Z,29.64
2018-08-03T02:41:07.154Z,29.63
2018-08-03T02:41:47.983Z,29.67
2018-08-03T02:42:28.755Z,29.58
2018-08-03T02:43:09.491Z,29.55
2018-08-03T02:43:50.236Z,29.55
2018-08-03T02:44:31.022Z,29.61
2018-08-03T02:45:11.902Z,29.57
2018-08-03T02:45:52.768Z,29.6
2018-08-03T02:46:33.560Z,29.57
2018-08-03T02:47:14.283Z,29.57
2018-08-03T02:47:54.984Z,29.61
2018-08-03T02:48:35.746Z,29.52
2018-08-03T02:49:16.518Z,29.61
2018-08-03T02:49:57.258Z,29.55
2018-08-03T02:50:38.057Z,29.57
2018-08-03T02:51:18.947Z,29.58
2018-08-03T02:51:59.792Z,29.42
2018-08-03T02:52:40.608Z,29.55
2018-08-03T02:53:21.369Z,29.49
2018-08-03T02:54:02.135Z,29.49
2018-08-03T02:54:42.932Z,29.61
2018-08-03T02:55:23.697Z,29.57
2018-08-03T02:56:04.580Z,29.55
2018-08-03T02:56:45.420Z,29.43
2018-08-03T02:57:26.338Z,29.42
2018-08-03T02:58:07.085Z,29.46
2018-08-03T02:58:47.896Z,29.45
2018-08-03T02:59:28.729Z,29.45
2018-08-03T03:00:09.479Z,29.6
2018-08-03T03:00:50.210Z,29.52
2018-08-03T03:01:30.939Z,29.57
2018-08-03T03:02:11.785Z,29.57
2018-08-03T03:02:52.574Z,29.53
2018-08-03T03:03:33.405Z,29.57
2018-08-03T03:04:14.134Z,29.61
2018-08-03T03:04:54.935Z,29.57
2018-08-03T03:05:35.673Z,29.53
2018-08-03T03:06:16.419Z,29.49
2018-08-03T03:06:57.278Z,29.55
2018-08-03T03:07:38.020Z,29.57
2018-08-03T03:08:18.828Z,29.55
2018-08-03T03:08:59.681Z,29.52
2018-08-03T03:09:40.487Z,29.52
2018-08-03T03:10:21.335Z,29.51
2018-08-03T03:11:02.090Z,29.53
2018-08-03T03:11:42.856Z,29.51
2018-08-03T03:12:23.672Z,29.49
2018-08-03T03:13:04.362Z,29.51
2018-08-03T03:13:45.092Z,29.43
2018-08-03T03:14:25.839Z,29.51
2018-08-03T03:15:06.621Z,29.55
2018-08-03T03:15:47.419Z,29.53
2018-08-03T03:16:28.162Z,29.55
2018-08-03T03:17:08.931Z,29.46
2018-08-03T03:17:49.758Z,29.49
2018-08-03T03:18:30.634Z,29.49
2018-08-03T03:19:11.380Z,29.45
2018-08-03T03:19:52.140Z,29.45
2018-08-03T03:20:32.882Z,29.42
2018-08-03T03:21:13.658Z,29.37
2018-08-03T03:21:54.530Z,29.41
2018-08-03T03:22:35.345Z,29.36
2018-08-03T03:23:16.250Z,29.37
2018-08-03T03:23:56.995Z,29.37
2018-08-03T03:24:37.797Z,29.3
2018-08-03T03:25:18.695Z,29.39
2018-08-03T03:25:59.429Z,29.37
2018-08-03T03:26:40.136Z,29.39
2018-08-03T03:27:20.877Z,29.33
2018-08-03T03:28:01.678Z,29.27
2018-08-03T03:28:42.484Z,29.3
2018-08-03T03:29:23.265Z,29.31
2018-08-03T03:30:04.020Z,29.33
2018-08-03T03:30:44.744Z,29.31
2018-08-03T03:31:25.470Z,29.37
2018-08-03T03:32:06.209Z,29.34
2018-08-03T03:32:47.056Z,29.33
2018-08-03T03:33:27.761Z,29.34
2018-08-03T03:34:08.486Z,29.41
2018-08-03T03:34:49.319Z,29.36
2018-08-03T03:35:30.136Z,29.34
2018-08-03T03:36:11.096Z,29.36
2018-08-03T03:36:51.885Z,29.37
2018-08-03T03:37:32.659Z,29.33
2018-08-03T03:38:13.440Z,29.3
2018-08-03T03:38:54.235Z,29.27
2018-08-03T03:39:35.087Z,29.31
2018-08-03T03:40:15.951Z,29.18
2018-08-03T03:40:56.781Z,29.27
2018-08-03T03:41:37.567Z,29.21
2018-08-03T03:42:18.391Z,29.23
2018-08-03T03:42:59.219Z,29.24
2018-08-03T03:43:39.968Z,29.18
2018-08-03T03:44:20.822Z,29.16
2018-08-03T03:45:01.613Z,29.16
2018-08-03T03:45:42.531Z,29.15
2018-08-03T03:46:23.290Z,29.05
2018-08-03T03:47:04.091Z,29.16
2018-08-03T03:47:44.888Z,29.02
2018-08-03T03:48:25.702Z,29.15
2018-08-03T03:49:06.614Z,29.16
2018-08-03T03:49:47.372Z,29.18
2018-08-03T03:50:28.126Z,29.09
2018-08-03T03:51:09.052Z,29.14
2018-08-03T03:51:49.776Z,29.27
2018-08-03T03:52:30.499Z,29.27
2018-08-03T03:53:11.290Z,29.09
2018-08-03T03:53:52.012Z,29.04
2018-08-03T03:54:32.893Z,29.05
2018-08-03T03:55:13.709Z,29.08
2018-08-03T03:55:54.545Z,29.19
2018-08-03T03:56:35.283Z,29.27
2018-08-03T03:57:16.034Z,29.12
2018-08-03T03:57:56.745Z,29.21
2018-08-03T03:58:37.516Z,29.18
2018-08-03T03:59:18.418Z,29.16
2018-08-03T03:59:59.032Z,29.21
2018-08-03T04:00:39.776Z,29.28
2018-08-03T04:01:20.650Z,29.26
2018-08-03T04:02:01.449Z,29.28
2018-08-03T04:02:42.240Z,29.3
2018-08-03T04:03:22.970Z,29.3
2018-08-03T04:04:03.759Z,29.27
2018-08-03T04:04:44.575Z,29.33
2018-08-03T04:05:25.315Z,29.33
2018-08-03T04:06:06.066Z,29.36
2018-08-03T04:06:46.829Z,29.34
2018-08-03T04:07:27.618Z,29.41
2018-08-03T04:08:08.420Z,29.41
2018-08-03T04:08:49.174Z,29.39
2018-08-03T04:09:29.956Z,29.41
2018-08-03T04:10:10.762Z,29.42
2018-08-03T04:10:51.557Z,29.45
2018-08-03T04:11:32.336Z,29.39
2018-08-03T04:12:13.119Z,29.49
2018-08-03T04:12:53.858Z,29.51
2018-08-03T04:13:34.625Z,29.46
2018-08-03T04:14:15.400Z,29.46
2018-08-03T04:14:56.223Z,29.46
2018-08-03T04:15:37.016Z,29.46
2018-08-03T04:16:17.761Z,29.45
2018-08-03T04:16:58.549Z,29.45
2018-08-03T04:17:39.347Z,29.43
2018-08-03T04:18:20.097Z,29.42
2018-08-03T04:19:00.844Z,29.33
2018-08-03T04:19:41.575Z,29.36
2018-08-03T04:20:22.391Z,29.42
2018-08-03T04:21:03.208Z,29.36
2018-08-03T04:21:43.944Z,29.41
2018-08-03T04:22:24.700Z,29.45
2018-08-03T04:23:05.588Z,29.45
2018-08-03T04:23:46.364Z,29.43
2018-08-03T04:24:27.181Z,29.46
2018-08-03T04:25:07.907Z,29.43
2018-08-03T04:25:48.710Z,29.46
2018-08-03T04:26:29.529Z,29.46
2018-08-03T04:27:10.230Z,29.49
2018-08-03T04:27:50.953Z,29.49
2018-08-03T04:28:31.708Z,29.51
2018-08-03T04:29:12.526Z,29.45
2018-08-03T04:29:53.424Z,29.42
2018-08-03T04:30:34.289Z,29.42
2018-08-03T04:31:15.032Z,29.45
2018-08-03T04:31:55.722Z,29.45
2018-08-03T04:32:36.432Z,29.39
2018-08-03T04:33:17.223Z,29.43
2018-08-03T04:33:58.067Z,29.39
2018-08-03T04:34:38.777Z,29.39
2018-08-03T04:35:19.538Z,29.42
2018-08-03T04:36:00.363Z,29.42
2018-08-03T04:36:41.135Z,29.48
2018-08-03T04:37:21.990Z,29.43
2018-08-03T04:38:02.713Z,29.45
2018-08-03T04:38:43.454Z,29.43
2018-08-03T04:39:24.187Z,29.45
2018-08-03T04:40:05.010Z,29.48
2018-08-03T04:40:45.829Z,29.53
2018-08-03T04:41:26.675Z,29.48
2018-08-03T04:42:07.426Z,29.43
2018-08-03T04:42:48.157Z,29.48
2018-08-03T04:43:28.982Z,29.49
2018-08-03T04:44:09.798Z,29.51
2018-08-03T04:44:50.557Z,29.53
2018-08-03T04:45:31.282Z,29.49
2018-08-03T04:46:12.077Z,29.55
2018-08-03T04:46:52.873Z,29.48
2018-08-03T04:47:33.643Z,29.51
2018-08-03T04:48:14.517Z,29.53
2018-08-03T04:48:55.260Z,29.49
2018-08-03T04:49:35.950Z,29.52
2018-08-03T04:50:16.682Z,29.57
2018-08-03T04:50:57.536Z,29.51
2018-08-03T04:51:38.350Z,29.43
2018-08-03T04:52:19.128Z,29.48
2018-08-03T04:52:59.957Z,29.48
2018-08-03T04:53:40.787Z,29.49
2018-08-03T04:54:21.580Z,29.48
2018-08-03T04:55:02.450Z,29.48
2018-08-03T04:55:43.164Z,29.48
2018-08-03T04:56:24.002Z,29.53
2018-08-03T04:57:04.841Z,29.57
2018-08-03T04:57:45.585Z,29.42
2018-08-03T04:58:26.304Z,29.52
2018-08-03T04:59:07.020Z,29.49
2018-08-03T04:59:47.830Z,29.45
2018-08-03T05:00:28.629Z,29.45
2018-08-03T05:01:09.367Z,29.43
2018-08-03T05:01:50.214Z,29.39
2018-08-03T05:02:31.008Z,29.43
2018-08-03T05:03:11.835Z,29.42
2018-08-03T05:03:52.614Z,29.37
2018-08-03T05:04:33.323Z,29.37
2018-08-03T05:05:14.114Z,29.39
2018-08-03T05:05:54.866Z,29.41
2018-08-03T05:06:35.736Z,29.43
2018-08-03T05:07:16.597Z,29.49
2018-08-03T05:07:57.384Z,29.41
2018-08-03T05:08:38.128Z,29.36
2018-08-03T05:09:18.910Z,29.36
2018-08-03T05:09:59.724Z,29.34
2018-08-03T05:10:40.493Z,29.28
2018-08-03T05:11:21.207Z,29.36
2018-08-03T05:12:01.947Z,29.34
2018-08-03T05:12:42.761Z,29.34
2018-08-03T05:13:23.643Z,29.3
2018-08-03T05:14:04.437Z,29.36
2018-08-03T05:14:45.171Z,29.41
2018-08-03T05:15:25.882Z,29.42
2018-08-03T05:16:06.582Z,29.48
2018-08-03T05:16:47.369Z,29.46
2018-08-03T05:17:28.166Z,29.48
2018-08-03T05:18:08.896Z,29.55
2018-08-03T05:18:49.687Z,29.52
2018-08-03T05:19:30.467Z,29.51
2018-08-03T05:20:11.303Z,29.55
2018-08-03T05:20:52.079Z,29.55
2018-08-03T05:21:32.821Z,29.52
2018-08-03T05:22:13.556Z,29.58
2018-08-03T05:22:54.315Z,29.61
2018-08-03T05:23:35.195Z,29.61
2018-08-03T05:24:16.089Z,29.65
2018-08-03T05:24:56.839Z,29.57
2018-08-03T05:25:37.611Z,29.55
2018-08-03T05:26:18.406Z,29.51
2018-08-03T05:26:59.189Z,29.41
2018-08-03T05:27:39.982Z,29.51
2018-08-03T05:28:20.743Z,29.57
2018-08-03T05:29:01.476Z,29.57
2018-08-03T05:29:42.298Z,29.55
2018-08-03T05:30:23.144Z,29.57
2018-08-03T05:31:03.838Z,29.63
2018-08-03T05:31:44.615Z,29.6
2018-08-03T05:32:25.433Z,29.57
2018-08-03T05:33:06.246Z,29.52
2018-08-03T05:33:47.072Z,29.52
2018-08-03T05:34:27.821Z,29.57
2018-08-03T05:35:08.633Z,29.52
2018-08-03T05:35:49.411Z,29.48
2018-08-03T05:36:30.111Z,29.53
2018-08-03T05:37:10.838Z,29.57
2018-08-03T05:37:51.563Z,29.6
2018-08-03T05:38:32.428Z,29.64
2018-08-03T05:39:13.305Z,29.67
2018-08-03T05:39:54.118Z,29.64
2018-08-03T05:40:34.895Z,29.65
2018-08-03T05:41:15.678Z,29.68
2018-08-03T05:41:56.418Z,29.63
2018-08-03T05:42:37.303Z,29.65
2018-08-03T05:43:18.012Z,29.68
2018-08-03T05:43:58.803Z,29.71
2018-08-03T05:44:39.521Z,29.64
2018-08-03T05:45:20.381Z,29.68
2018-08-03T05:46:01.256Z,29.71
2018-08-03T05:46:42.071Z,29.65
2018-08-03T05:47:22.807Z,29.63
2018-08-03T05:48:03.551Z,29.58
2018-08-03T05:48:44.381Z,29.6
2018-08-03T05:49:25.198Z,29.55
2018-08-03T05:50:06.023Z,29.57
2018-08-03T05:50:46.841Z,29.61
2018-08-03T05:51:27.641Z,29.64
2018-08-03T05:52:08.368Z,29.7
2018-08-03T05:52:49.205Z,29.71
2018-08-03T05:53:30.040Z,29.65
2018-08-03T05:54:10.786Z,29.68
2018-08-03T05:54:51.562Z,29.63
2018-08-03T05:55:32.286Z,29.53
2018-08-03T05:56:13.176Z,29.52
2018-08-03T05:56:53.984Z,29.68
2018-08-03T05:57:34.758Z,29.65
2018-08-03T05:58:15.515Z,29.61
2018-08-03T05:58:56.238Z,29.67
2018-08-03T05:59:37.003Z,29.68
2018-08-03T06:00:17.821Z,29.67
2018-08-03T06:00:58.690Z,29.65
2018-08-03T06:01:40.096Z,29.68
2018-08-03T06:02:20.918Z,29.71
2018-08-03T06:03:01.713Z,29.65
2018-08-03T06:03:42.515Z,29.61
2018-08-03T06:04:23.308Z,29.67
2018-08-03T06:05:04.059Z,29.63
2018-08-03T06:05:44.848Z,29.68
2018-08-03T06:06:25.663Z,29.65
2018-08-03T06:07:06.471Z,29.67
2018-08-03T06:07:47.219Z,29.64
2018-08-03T06:08:27.935Z,29.61
2018-08-03T06:09:08.777Z,29.65
2018-08-03T06:09:49.546Z,29.68
2018-08-03T06:10:30.307Z,29.65
2018-08-03T06:11:12.103Z,29.67
2018-08-03T06:11:53.104Z,29.68
2018-08-03T06:12:33.964Z,29.65
2018-08-03T06:13:14.818Z,29.64
2018-08-03T06:13:55.576Z,29.65
2018-08-03T06:14:36.340Z,29.68
2018-08-03T06:15:17.123Z,29.64
2018-08-03T06:15:57.939Z,29.71
2018-08-03T06:16:38.769Z,29.7
2018-08-03T06:17:19.534Z,29.68
2018-08-03T06:18:00.290Z,29.68
2018-08-03T06:18:41.098Z,29.7
2018-08-03T06:19:21.940Z,29.71
2018-08-03T06:20:02.711Z,29.71
2018-08-03T06:20:43.496Z,29.71
2018-08-03T06:21:24.211Z,29.7
2018-08-03T06:22:05.044Z,29.7
2018-08-03T06:22:45.851Z,29.74
2018-08-03T06:23:26.600Z,29.78
2018-08-03T06:24:07.358Z,29.73
2018-08-03T06:24:48.179Z,29.7
2018-08-03T06:25:28.995Z,29.83
2018-08-03T06:26:09.818Z,29.9
2018-08-03T06:26:50.605Z,29.95
2018-08-03T06:27:31.357Z,30
2018-08-03T06:28:12.163Z,30.01
2018-08-03T06:28:52.876Z,30
2018-08-03T06:29:33.610Z,30.2
2018-08-03T06:30:14.356Z,30.16
2018-08-03T06:30:55.206Z,30.24
2018-08-03T06:31:36.081Z,30.35
2018-08-03T06:32:16.923Z,30.45
2018-08-03T06:32:57.729Z,30.42
2018-08-03T06:33:38.479Z,30.53
2018-08-03T06:34:19.230Z,30.54
2018-08-03T06:35:00.009Z,30.6
2018-08-03T06:35:40.824Z,30.72
2018-08-03T06:36:21.589Z,30.7
2018-08-03T06:37:02.369Z,30.72
2018-08-03T06:37:43.156Z,30.83
2018-08-03T06:38:23.971Z,30.75
2018-08-03T06:39:04.750Z,30.82
2018-08-03T06:39:45.470Z,30.91
2018-08-03T06:40:26.249Z,30.95
2018-08-03T06:41:07.082Z,31.01
2018-08-03T06:41:47.811Z,31.04
2018-08-03T06:42:28.540Z,31.12
2018-08-03T06:43:09.300Z,31.23
2018-08-03T06:43:50.130Z,31.19
2018-08-03T06:44:30.952Z,31.28
2018-08-03T06:45:11.724Z,31.19
2018-08-03T06:45:52.467Z,31.17
2018-08-03T06:46:33.318Z,31.32
2018-08-03T06:47:14.183Z,31.34
2018-08-03T06:47:54.920Z,31.47
2018-08-03T06:48:35.676Z,31.43
2018-08-03T06:49:16.433Z,31.53
2018-08-03T06:49:57.172Z,31.5
2018-08-03T06:50:38.027Z,31.57
2018-08-03T06:51:18.904Z,31.62
2018-08-03T06:51:59.775Z,31.63
2018-08-03T06:52:40.529Z,31.61
2018-08-03T06:53:21.304Z,31.57
2018-08-03T06:54:02.168Z,31.73
2018-08-03T06:54:42.936Z,31.93
2018-08-03T06:55:23.686Z,32.11
2018-08-03T06:56:04.452Z,32.23
2018-08-03T06:56:45.236Z,32.19
2018-08-03T06:57:26.233Z,32.25
2018-08-03T06:58:07.016Z,32.29
2018-08-03T06:58:47.803Z,32.35
2018-08-03T06:59:28.726Z,32.45
2018-08-03T07:00:09.652Z,32.44
2018-08-03T07:00:50.532Z,32.56
2018-08-03T07:01:31.369Z,32.57
2018-08-03T07:02:12.226Z,32.62
2018-08-03T07:02:53.060Z,32.65
2018-08-03T07:03:33.866Z,32.77
2018-08-03T07:04:14.677Z,32.82
2018-08-03T07:04:55.493Z,32.88
2018-08-03T07:05:36.244Z,33.06
2018-08-03T07:06:16.996Z,33.14
2018-08-03T07:06:57.823Z,33.11
2018-08-03T07:07:38.674Z,33.14
2018-08-03T07:08:19.519Z,33.23
2018-08-03T07:09:00.377Z,33.37
2018-08-03T07:09:41.184Z,33.37
2018-08-03T07:10:21.937Z,33.49
2018-08-03T07:11:02.756Z,33.69
2018-08-03T07:11:43.581Z,33.84
2018-08-03T07:12:24.322Z,33.95
2018-08-03T07:13:05.052Z,34.1
2018-08-03T07:13:45.819Z,34.3
2018-08-03T07:14:26.629Z,34.53
2018-08-03T07:15:07.388Z,34.7
2018-08-03T07:15:48.140Z,34.8
2018-08-03T07:16:28.933Z,34.72
2018-08-03T07:17:09.736Z,34.62
2018-08-03T07:17:50.565Z,34.4
2018-08-03T07:18:31.314Z,34.27
2018-08-03T07:19:12.104Z,34.1
2018-08-03T07:19:53.024Z,33.88
2018-08-03T07:20:33.886Z,33.76
2018-08-03T07:21:14.584Z,33.63
2018-08-03T07:21:55.328Z,33.61
2018-08-03T07:22:36.130Z,33.49
2018-08-03T07:23:16.965Z,33.53
2018-08-03T07:23:57.744Z,33.54
2018-08-03T07:24:38.561Z,33.49
2018-08-03T07:25:19.324Z,33.57
2018-08-03T07:26:00.106Z,33.65
2018-08-03T07:26:40.807Z,33.79
2018-08-03T07:27:22.515Z,33.75
2018-08-03T07:28:03.317Z,33.84
2018-08-03T07:28:44.057Z,34.03
2018-08-03T07:29:24.830Z,34.12
2018-08-03T07:30:05.663Z,34.24
2018-08-03T07:30:46.488Z,34.53
2018-08-03T07:31:27.259Z,34.81
2018-08-03T07:32:08.066Z,35.22
2018-08-03T07:32:48.827Z,35.59
2018-08-03T07:33:29.553Z,36.07
2018-08-03T07:34:10.385Z,36.69
2018-08-03T07:34:51.205Z,37.12
2018-08-03T07:35:32.016Z,37.62
2018-08-03T07:36:12.728Z,37.98
2018-08-03T07:36:53.561Z,38.42
2018-08-03T07:37:34.371Z,38.81
2018-08-03T07:38:15.122Z,38.99
2018-08-03T07:38:55.875Z,39.03
2018-08-03T07:39:36.648Z,39.26
2018-08-03T07:40:17.472Z,39.54
2018-08-03T07:40:58.269Z,39.55
2018-08-03T07:41:39.127Z,39.72
2018-08-03T07:42:19.940Z,39.79
2018-08-03T07:43:00.779Z,40.01
2018-08-03T07:43:41.450Z,40.16
2018-08-03T07:44:22.211Z,40.29
2018-08-03T07:45:03.083Z,40.42
2018-08-03T07:45:43.749Z,40.41
2018-08-03T07:46:24.542Z,40.43
2018-08-03T07:47:05.350Z,40.35
2018-08-03T07:47:46.273Z,40.67
2018-08-03T07:48:27.113Z,40.82
2018-08-03T07:49:07.908Z,40.79
2018-08-03T07:49:48.702Z,40.61
2018-08-03T07:50:29.531Z,40.8
2018-08-03T07:51:10.252Z,40.72
2018-08-03T07:51:51.021Z,40.64
2018-08-03T07:52:31.829Z,40.55
2018-08-03T07:53:12.559Z,40.67
2018-08-03T07:53:53.405Z,40.67
2018-08-03T07:54:34.175Z,40.65
2018-08-03T07:55:14.957Z,40.67
2018-08-03T07:55:55.792Z,40.72
2018-08-03T07:56:36.604Z,40.72
2018-08-03T07:57:17.426Z,40.64
2018-08-03T07:57:58.186Z,40.53
2018-08-03T07:58:38.945Z,40.64
2018-08-03T07:59:19.682Z,40.42
2018-08-03T08:00:00.554Z,40.42
2018-08-03T08:00:41.361Z,40.39
2018-08-03T08:01:22.238Z,40.29
2018-08-03T08:02:03.037Z,40.39
2018-08-03T08:02:43.770Z,40.34
2018-08-03T08:03:24.609Z,40.27
2018-08-03T08:04:05.438Z,40.42
2018-08-03T08:04:46.193Z,40.2
2018-08-03T08:05:26.991Z,40.51
2018-08-03T08:06:07.701Z,40.58
2018-08-03T08:06:48.544Z,40.72
2018-08-03T08:07:29.400Z,40.92
2018-08-03T08:08:10.224Z,41.01
2018-08-03T08:08:50.983Z,41.14
2018-08-03T08:09:31.760Z,41.25
2018-08-03T08:10:12.480Z,41.32
2018-08-03T08:10:53.341Z,41.45
2018-08-03T08:11:34.082Z,41.49
2018-08-03T08:12:14.886Z,41.54
2018-08-03T08:12:55.706Z,41.54
2018-08-03T08:13:36.511Z,41.69
2018-08-03T08:14:17.366Z,41.71
2018-08-03T08:14:58.165Z,41.52
2018-08-03T08:15:38.983Z,41.41
2018-08-03T08:16:19.664Z,41.45
2018-08-03T08:17:00.533Z,41.49
2018-08-03T08:17:41.383Z,41.57
2018-08-03T08:18:22.174Z,41.7
2018-08-03T08:19:02.987Z,41.86
2018-08-03T08:19:43.894Z,41.96
2018-08-03T08:20:24.691Z,41.96
2018-08-03T08:21:05.517Z,42.02
2018-08-03T08:21:46.353Z,41.94
2018-08-03T08:22:27.143Z,41.89
2018-08-03T08:23:07.908Z,42.05
2018-08-03T08:23:48.710Z,41.96
2018-08-03T08:24:29.478Z,41.89
2018-08-03T08:25:10.232Z,41.44
2018-08-03T08:25:50.983Z,41.28
2018-08-03T08:26:31.843Z,41.1
2018-08-03T08:27:12.648Z,40.77
2018-08-03T08:27:53.420Z,40.5
2018-08-03T08:28:34.180Z,40.1
2018-08-03T08:29:15.067Z,40.03
2018-08-03T08:29:55.885Z,39.59
2018-08-03T08:30:36.636Z,39.52
2018-08-03T08:31:17.388Z,39.03
2018-08-03T08:31:58.121Z,38.68
2018-08-03T08:32:38.955Z,38.01
2018-08-03T08:33:19.744Z,37.56
2018-08-03T08:34:00.587Z,37.37
2018-08-03T08:34:41.375Z,37.09
2018-08-03T08:35:22.142Z,36.99
2018-08-03T08:36:02.928Z,37.03
2018-08-03T08:36:43.661Z,37.1
2018-08-03T08:37:24.513Z,37.15
2018-08-03T08:38:05.260Z,37.17
2018-08-03T08:38:46.000Z,37.09
2018-08-03T08:39:26.912Z,37.4
2018-08-03T08:40:07.760Z,37.63
2018-08-03T08:40:48.579Z,37.69
2018-08-03T08:41:29.436Z,38
2018-08-03T08:42:10.176Z,38.04
2018-08-03T08:42:51.067Z,38.22
2018-08-03T08:43:31.942Z,38.54
2018-08-03T08:44:12.623Z,38.79
2018-08-03T08:44:53.412Z,39.25
2018-08-03T08:45:34.245Z,39.36
2018-08-03T08:46:15.076Z,39.21
2018-08-03T08:46:55.844Z,39.48
2018-08-03T08:47:36.609Z,39.13
2018-08-03T08:48:17.480Z,38.52
2018-08-03T08:48:58.323Z,37.66
2018-08-03T08:49:39.131Z,36.84
2018-08-03T08:50:19.845Z,36.22
2018-08-03T08:51:00.564Z,35.77
2018-08-03T08:51:41.289Z,35.41
2018-08-03T08:52:22.073Z,35.09
2018-08-03T08:53:02.882Z,34.82
2018-08-03T08:53:43.797Z,34.62
2018-08-03T08:54:24.543Z,34.5
2018-08-03T08:55:05.277Z,34.4
2018-08-03T08:55:46.125Z,34.17
2018-08-03T08:56:26.872Z,34.08
2018-08-03T08:57:07.584Z,33.79
2018-08-03T08:57:48.300Z,33.73
2018-08-03T08:58:29.053Z,33.78
2018-08-03T08:59:09.891Z,33.61
2018-08-03T08:59:50.637Z,33.63
2018-08-03T09:00:31.354Z,33.63
2018-08-03T09:01:12.225Z,33.45
2018-08-03T09:01:53.015Z,33.5
2018-08-03T09:02:33.881Z,33.35
2018-08-03T09:03:14.612Z,33.39
2018-08-03T09:03:55.446Z,33.32
2018-08-03T09:04:36.250Z,33.32
2018-08-03T09:05:16.987Z,33.16
2018-08-03T09:05:57.724Z,33.09